Puisoye, Argentina
Current Conditions -  °F | °C
As of 5:00 AM on Thursday 18 Dec 2014 (Local Time) from SARC Reporting Station
Overcast Overcast  
Wind Chill: 72°   Ceiling: 700
Heat Index: 72°   Visibility: 6mi
Dew Point: 72°   Wind: 5mph
Humidity: 100%   Direction: 180°S
Pressure: 29.85"   Gusts: NA
Location:  27.88°S, 57.87°W
Report Text: SARC 180800Z 18004KT 9999 BKN007 BKN020 OVC100 22/22 Q1011
Loading
Personal Weather Stations






























Interactive Weather Map New forecast layout! Learn more

10-Day Weather Forecast

Advertisements
Track Severe Weather on mobile